sensor_id;sensor_type;location;lat;lon;timestamp;pressure;altitude;pressure_sealevel;temperature;humidity
11712;BME280;5912;51.034;6.984;2023-03-03T00:00:33;56684.88;;;-142.13;69.64
11712;BME280;5912;51.034;6.984;2023-03-03T00:03:00;56708.91;;;-142.13;70.12
11712;BME280;5912;51.034;6.984;2023-03-03T00:05:31;56736.94;;;-142.13;69.71
11712;BME280;5912;51.034;6.984;2023-03-03T00:07:57;56668.84;;;-142.13;69.65
11712;BME280;5912;51.034;6.984;2023-03-03T00:10:22;56670.84;;;-142.13;70.20
11712;BME280;5912;51.034;6.984;2023-03-03T00:12:48;56678.84;;;-142.13;69.99
11712;BME280;5912;51.034;6.984;2023-03-03T00:15:20;56696.88;;;-142.13;69.89
11712;BME280;5912;51.034;6.984;2023-03-03T00:17:46;56686.88;;;-142.13;70.42
11712;BME280;5912;51.034;6.984;2023-03-03T00:20:37;56694.88;;;-142.13;70.15
11712;BME280;5912;51.034;6.984;2023-03-03T00:25:49;56688.88;;;-142.13;69.78
11712;BME280;5912;51.034;6.984;2023-03-03T00:30:51;56692.88;;;-142.13;69.32
11712;BME280;5912;51.034;6.984;2023-03-03T00:33:30;56704.91;;;-142.13;69.41
11712;BME280;5912;51.034;6.984;2023-03-03T00:38:40;56698.88;;;-142.13;70.53
11712;BME280;5912;51.034;6.984;2023-03-03T00:41:26;56704.91;;;-142.13;70.24
11712;BME280;5912;51.034;6.984;2023-03-03T00:43:52;56688.88;;;-142.13;69.89
11712;BME280;5912;51.034;6.984;2023-03-03T00:46:20;56712.91;;;-142.13;70.25
11712;BME280;5912;51.034;6.984;2023-03-03T00:48:47;56708.91;;;-142.13;70.16
11712;BME280;5912;51.034;6.984;2023-03-03T00:53:47;56692.88;;;-142.13;70.04
11712;BME280;5912;51.034;6.984;2023-03-03T00:56:13;56696.88;;;-142.13;69.80
11712;BME280;5912;51.034;6.984;2023-03-03T00:58:38;56714.91;;;-142.13;70.56
11712;BME280;5912;51.034;6.984;2023-03-03T01:01:04;56724.94;;;-142.13;70.67
11712;BME280;5912;51.034;6.984;2023-03-03T01:03:29;56712.91;;;-142.13;70.96
11712;BME280;5912;51.034;6.984;2023-03-03T01:05:54;56676.84;;;-142.13;70.44
11712;BME280;5912;51.034;6.984;2023-03-03T01:08:20;56708.91;;;-142.13;70.91
11712;BME280;5912;51.034;6.984;2023-03-03T01:10:51;56696.88;;;-142.13;70.95
11712;BME280;5912;51.034;6.984;2023-03-03T01:13:30;56692.88;;;-142.13;70.85
11712;BME280;5912;51.034;6.984;2023-03-03T01:15:57;56682.88;;;-142.13;70.91
11712;BME280;5912;51.034;6.984;2023-03-03T01:18:23;56720.94;;;-142.13;71.25
11712;BME280;5912;51.034;6.984;2023-03-03T01:20:48;56678.84;;;-142.13;71.51
11712;BME280;5912;51.034;6.984;2023-03-03T01:23:13;56674.84;;;-142.13;71.20
11712;BME280;5912;51.034;6.984;2023-03-03T01:25:39;56680.84;;;-142.13;71.82
11712;BME280;5912;51.034;6.984;2023-03-03T01:28:04;56722.94;;;-142.13;71.35
11712;BME280;5912;51.034;6.984;2023-03-03T01:30:30;56716.91;;;-142.13;71.58
11712;BME280;5912;51.034;6.984;2023-03-03T01:32:55;56676.84;;;-142.13;71.21
11712;BME280;5912;51.034;6.984;2023-03-03T01:35:21;56658.81;;;-142.13;72.00
11712;BME280;5912;51.034;6.984;2023-03-03T01:37:46;56706.91;;;-142.13;71.52
11712;BME280;5912;51.034;6.984;2023-03-03T01:40:22;56696.88;;;-142.13;72.19
11712;BME280;5912;51.034;6.984;2023-03-03T01:42:49;56706.91;;;-142.13;72.40
11712;BME280;5912;51.034;6.984;2023-03-03T01:45:18;56734.94;;;-142.13;71.75
11712;BME280;5912;51.034;6.984;2023-03-03T01:48:03;56708.91;;;-142.13;71.45
11712;BME280;5912;51.034;6.984;2023-03-03T01:51:03;56738.97;;;-142.13;71.85
11712;BME280;5912;51.034;6.984;2023-03-03T01:53:36;56724.94;;;-142.13;72.18
11712;BME280;5912;51.034;6.984;2023-03-03T01:56:04;56676.84;;;-142.13;71.93
11712;BME280;5912;51.034;6.984;2023-03-03T01:58:39;56714.91;;;-142.13;71.91
11712;BME280;5912;51.034;6.984;2023-03-03T02:01:13;56712.91;;;-142.13;72.24
11712;BME280;5912;51.034;6.984;2023-03-03T02:03:40;56696.88;;;-142.13;72.31
11712;BME280;5912;51.034;6.984;2023-03-03T02:06:09;56706.91;;;-142.13;72.69
11712;BME280;5912;51.034;6.984;2023-03-03T02:08:44;56692.88;;;-142.13;72.32
11712;BME280;5912;51.034;6.984;2023-03-03T02:11:13;56716.91;;;-142.13;72.21
11712;BME280;5912;51.034;6.984;2023-03-03T02:13:40;56714.91;;;-142.13;72.52
11712;BME280;5912;51.034;6.984;2023-03-03T02:16:06;56706.91;;;-142.13;72.63
11712;BME280;5912;51.034;6.984;2023-03-03T02:18:31;56684.88;;;-142.13;72.93
11712;BME280;5912;51.034;6.984;2023-03-03T02:26:10;56712.91;;;-142.13;73.07
11712;BME280;5912;51.034;6.984;2023-03-03T02:28:37;56742.97;;;-142.13;73.07
11712;BME280;5912;51.034;6.984;2023-03-03T02:31:07;56698.88;;;-142.13;72.91
11712;BME280;5912;51.034;6.984;2023-03-03T02:33:36;56748.97;;;-142.13;72.72
11712;BME280;5912;51.034;6.984;2023-03-03T02:36:02;56724.94;;;-142.13;73.05
11712;BME280;5912;51.034;6.984;2023-03-03T02:44:04;56720.94;;;-142.13;73.05
11712;BME280;5912;51.034;6.984;2023-03-03T02:46:35;56712.91;;;-142.13;73.20
11712;BME280;5912;51.034;6.984;2023-03-03T02:49:02;56726.94;;;-142.13;73.62
11712;BME280;5912;51.034;6.984;2023-03-03T02:51:28;56716.91;;;-142.13;73.60
11712;BME280;5912;51.034;6.984;2023-03-03T02:53:53;56692.88;;;-142.13;72.99
11712;BME280;5912;51.034;6.984;2023-03-03T02:56:19;56688.88;;;-142.13;73.50
11712;BME280;5912;51.034;6.984;2023-03-03T02:58:44;56688.88;;;-142.13;73.82
11712;BME280;5912;51.034;6.984;2023-03-03T03:01:09;56692.88;;;-142.13;73.97
11712;BME280;5912;51.034;6.984;2023-03-03T03:03:35;56712.91;;;-142.13;74.34
11712;BME280;5912;51.034;6.984;2023-03-03T03:06:00;56771.00;;;-142.13;73.91
11712;BME280;5912;51.034;6.984;2023-03-03T03:08:26;56704.91;;;-142.13;73.33
11712;BME280;5912;51.034;6.984;2023-03-03T03:10:51;56676.84;;;-142.13;73.21
11712;BME280;5912;51.034;6.984;2023-03-03T03:13:17;56706.91;;;-142.13;73.84
11712;BME280;5912;51.034;6.984;2023-03-03T03:15:45;56712.91;;;-142.13;73.46
11712;BME280;5912;51.034;6.984;2023-03-03T03:18:11;56734.94;;;-142.13;73.31
11712;BME280;5912;51.034;6.984;2023-03-03T03:20:37;56688.88;;;-142.13;73.73
11712;BME280;5912;51.034;6.984;2023-03-03T03:23:04;56684.88;;;-142.13;73.60
11712;BME280;5912;51.034;6.984;2023-03-03T03:25:30;56668.84;;;-142.13;72.97
11712;BME280;5912;51.034;6.984;2023-03-03T03:27:55;56692.88;;;-142.13;72.91
11712;BME280;5912;51.034;6.984;2023-03-03T03:30:20;56710.91;;;-142.13;73.09
11712;BME280;5912;51.034;6.984;2023-03-03T03:32:47;56692.88;;;-142.13;73.13
11712;BME280;5912;51.034;6.984;2023-03-03T03:35:12;56686.88;;;-142.13;73.43
11712;BME280;5912;51.034;6.984;2023-03-03T03:37:38;56690.88;;;-142.13;73.46
11712;BME280;5912;51.034;6.984;2023-03-03T03:40:04;56744.97;;;-142.13;73.67
11712;BME280;5912;51.034;6.984;2023-03-03T03:42:31;56720.94;;;-142.13;73.41
11712;BME280;5912;51.034;6.984;2023-03-03T03:44:56;56716.91;;;-142.13;74.08
11712;BME280;5912;51.034;6.984;2023-03-03T03:47:21;56682.88;;;-142.13;73.58
11712;BME280;5912;51.034;6.984;2023-03-03T03:49:47;56716.91;;;-142.13;73.84
11712;BME280;5912;51.034;6.984;2023-03-03T03:52:12;56686.88;;;-142.13;73.10
11712;BME280;5912;51.034;6.984;2023-03-03T03:54:38;56708.91;;;-142.13;73.60
11712;BME280;5912;51.034;6.984;2023-03-03T03:57:03;56712.91;;;-142.13;73.47
11712;BME280;5912;51.034;6.984;2023-03-03T03:59:29;56704.91;;;-142.13;73.54
11712;BME280;5912;51.034;6.984;2023-03-03T04:02:16;56702.91;;;-142.13;72.87
11712;BME280;5912;51.034;6.984;2023-03-03T04:04:41;56724.94;;;-142.13;73.15
11712;BME280;5912;51.034;6.984;2023-03-03T04:07:07;56744.97;;;-142.13;73.43
11712;BME280;5912;51.034;6.984;2023-03-03T04:09:32;56704.91;;;-142.13;73.17
11712;BME280;5912;51.034;6.984;2023-03-03T04:11:57;56660.81;;;-142.13;73.41
11712;BME280;5912;51.034;6.984;2023-03-03T04:14:23;56684.88;;;-142.13;73.19
11712;BME280;5912;51.034;6.984;2023-03-03T04:16:48;56708.91;;;-142.13;73.61
11712;BME280;5912;51.034;6.984;2023-03-03T04:19:13;56692.88;;;-142.13;73.10
11712;BME280;5912;51.034;6.984;2023-03-03T04:21:39;56708.91;;;-142.13;73.38
11712;BME280;5912;51.034;6.984;2023-03-03T04:24:07;56726.94;;;-142.13;73.78
11712;BME280;5912;51.034;6.984;2023-03-03T04:26:32;56736.94;;;-142.13;74.11
11712;BME280;5912;51.034;6.984;2023-03-03T04:28:58;56728.94;;;-142.13;73.95
11712;BME280;5912;51.034;6.984;2023-03-03T04:31:24;56702.91;;;-142.13;73.77
11712;BME280;5912;51.034;6.984;2023-03-03T04:33:50;56696.88;;;-142.13;73.97
11712;BME280;5912;51.034;6.984;2023-03-03T04:36:16;56698.88;;;-142.13;73.61
11712;BME280;5912;51.034;6.984;2023-03-03T04:38:42;56694.88;;;-142.13;74.04
11712;BME280;5912;51.034;6.984;2023-03-03T04:41:08;56696.88;;;-142.13;73.66
11712;BME280;5912;51.034;6.984;2023-03-03T04:43:33;56680.84;;;-142.13;73.73
11712;BME280;5912;51.034;6.984;2023-03-03T04:45:58;56696.88;;;-142.13;73.94
11712;BME280;5912;51.034;6.984;2023-03-03T04:48:24;56676.84;;;-142.13;74.13
11712;BME280;5912;51.034;6.984;2023-03-03T04:50:49;56718.91;;;-142.13;73.45
11712;BME280;5912;51.034;6.984;2023-03-03T04:53:14;56636.78;;;-142.13;73.20
11712;BME280;5912;51.034;6.984;2023-03-03T04:55:40;56676.84;;;-142.13;72.87
11712;BME280;5912;51.034;6.984;2023-03-03T04:58:05;56676.84;;;-142.13;72.76
11712;BME280;5912;51.034;6.984;2023-03-03T05:00:30;56674.84;;;-142.13;72.92
11712;BME280;5912;51.034;6.984;2023-03-03T05:02:56;56680.84;;;-142.13;72.88
11712;BME280;5912;51.034;6.984;2023-03-03T05:05:22;56682.88;;;-142.13;72.68
11712;BME280;5912;51.034;6.984;2023-03-03T05:07:47;56704.91;;;-142.13;72.05
11712;BME280;5912;51.034;6.984;2023-03-03T05:10:12;56694.88;;;-142.13;72.81
11712;BME280;5912;51.034;6.984;2023-03-03T05:12:38;56686.88;;;-142.13;72.27
11712;BME280;5912;51.034;6.984;2023-03-03T05:15:04;56672.84;;;-142.13;72.78
11712;BME280;5912;51.034;6.984;2023-03-03T05:17:29;56676.84;;;-142.13;72.09
11712;BME280;5912;51.034;6.984;2023-03-03T05:19:54;56684.88;;;-142.13;72.36
11712;BME280;5912;51.034;6.984;2023-03-03T05:22:21;56676.84;;;-142.13;72.23
11712;BME280;5912;51.034;6.984;2023-03-03T05:24:47;56656.81;;;-142.13;72.24
11712;BME280;5912;51.034;6.984;2023-03-03T05:27:13;56664.84;;;-142.13;72.11
11712;BME280;5912;51.034;6.984;2023-03-03T05:29:39;56650.81;;;-142.13;72.29
11712;BME280;5912;51.034;6.984;2023-03-03T05:32:04;56668.84;;;-142.13;72.13
11712;BME280;5912;51.034;6.984;2023-03-03T05:34:30;56646.81;;;-142.13;71.84
11712;BME280;5912;51.034;6.984;2023-03-03T05:36:55;56648.81;;;-142.13;71.99
11712;BME280;5912;51.034;6.984;2023-03-03T05:39:20;56678.84;;;-142.13;71.35
11712;BME280;5912;51.034;6.984;2023-03-03T05:41:45;56652.81;;;-142.13;71.71
11712;BME280;5912;51.034;6.984;2023-03-03T05:44:11;56680.84;;;-142.13;71.43
11712;BME280;5912;51.034;6.984;2023-03-03T05:46:37;56684.88;;;-142.13;71.85
11712;BME280;5912;51.034;6.984;2023-03-03T05:49:02;56664.84;;;-142.13;71.09
11712;BME280;5912;51.034;6.984;2023-03-03T05:51:27;56670.84;;;-142.13;70.91
11712;BME280;5912;51.034;6.984;2023-03-03T05:54:05;56656.81;;;-142.13;71.12
11712;BME280;5912;51.034;6.984;2023-03-03T05:56:30;56648.81;;;-142.13;71.33
11712;BME280;5912;51.034;6.984;2023-03-03T05:58:56;56668.84;;;-142.13;70.99
11712;BME280;5912;51.034;6.984;2023-03-03T06:01:21;56660.81;;;-142.13;71.27
11712;BME280;5912;51.034;6.984;2023-03-03T06:03:46;56658.81;;;-142.13;70.77
11712;BME280;5912;51.034;6.984;2023-03-03T06:06:12;56676.84;;;-142.13;70.78
11712;BME280;5912;51.034;6.984;2023-03-03T06:08:38;56672.84;;;-142.13;70.56
11712;BME280;5912;51.034;6.984;2023-03-03T06:11:03;56688.88;;;-142.13;70.42
11712;BME280;5912;51.034;6.984;2023-03-03T06:13:28;56660.81;;;-142.13;70.39
11712;BME280;5912;51.034;6.984;2023-03-03T06:15:54;56646.81;;;-142.13;70.85
11712;BME280;5912;51.034;6.984;2023-03-03T06:18:19;56656.81;;;-142.13;70.90
11712;BME280;5912;51.034;6.984;2023-03-03T06:20:50;56622.75;;;-142.13;70.95
11712;BME280;5912;51.034;6.984;2023-03-03T06:23:15;56700.91;;;-142.13;70.70
11712;BME280;5912;51.034;6.984;2023-03-03T06:25:41;56662.81;;;-142.13;70.99
11712;BME280;5912;51.034;6.984;2023-03-03T06:28:07;56676.84;;;-142.13;70.44
11712;BME280;5912;51.034;6.984;2023-03-03T06:30:32;56662.81;;;-142.13;70.68
11712;BME280;5912;51.034;6.984;2023-03-03T06:32:57;56672.84;;;-142.13;71.20
11712;BME280;5912;51.034;6.984;2023-03-03T06:35:23;56648.81;;;-142.13;70.86
11712;BME280;5912;51.034;6.984;2023-03-03T06:37:48;56666.84;;;-142.13;70.04
11712;BME280;5912;51.034;6.984;2023-03-03T06:40:15;56674.84;;;-142.13;70.49
11712;BME280;5912;51.034;6.984;2023-03-03T06:42:40;56636.78;;;-142.13;70.36
11712;BME280;5912;51.034;6.984;2023-03-03T06:45:06;56662.81;;;-142.13;70.64
11712;BME280;5912;51.034;6.984;2023-03-03T06:47:31;56672.84;;;-142.13;70.04
11712;BME280;5912;51.034;6.984;2023-03-03T06:49:58;56648.81;;;-142.13;69.95
11712;BME280;5912;51.034;6.984;2023-03-03T06:52:25;56682.88;;;-142.13;70.39
11712;BME280;5912;51.034;6.984;2023-03-03T06:54:56;56662.81;;;-142.13;69.87
11712;BME280;5912;51.034;6.984;2023-03-03T06:57:32;56678.84;;;-142.13;69.59
11712;BME280;5912;51.034;6.984;2023-03-03T07:00:19;56668.84;;;-142.13;69.76
11712;BME280;5912;51.034;6.984;2023-03-03T07:02:46;56662.81;;;-142.13;69.16
11712;BME280;5912;51.034;6.984;2023-03-03T07:05:15;56652.81;;;-142.13;69.34
11712;BME280;5912;51.034;6.984;2023-03-03T07:07:42;56652.81;;;-142.13;69.78
11712;BME280;5912;51.034;6.984;2023-03-03T07:10:36;56636.78;;;-142.13;69.06
11712;BME280;5912;51.034;6.984;2023-03-03T07:13:27;56662.81;;;-142.13;69.41
11712;BME280;5912;51.034;6.984;2023-03-03T07:15:54;56686.88;;;-142.13;69.39
11712;BME280;5912;51.034;6.984;2023-03-03T07:21:36;56666.84;;;-142.13;69.15
11712;BME280;5912;51.034;6.984;2023-03-03T07:24:28;56660.81;;;-142.13;69.36
11712;BME280;5912;51.034;6.984;2023-03-03T07:27:24;56668.84;;;-142.13;68.78
11712;BME280;5912;51.034;6.984;2023-03-03T07:29:52;56610.75;;;-142.13;69.00
11712;BME280;5912;51.034;6.984;2023-03-03T07:32:34;56656.81;;;-142.13;68.79
11712;BME280;5912;51.034;6.984;2023-03-03T07:35:40;56644.81;;;-142.13;68.47
11712;BME280;5912;51.034;6.984;2023-03-03T07:38:16;56636.78;;;-142.13;68.11
11712;BME280;5912;51.034;6.984;2023-03-03T07:40:49;56680.84;;;-142.13;68.13
11712;BME280;5912;51.034;6.984;2023-03-03T07:46:39;56648.81;;;-142.13;68.00
11712;BME280;5912;51.034;6.984;2023-03-03T07:51:58;56642.78;;;-142.13;67.29
11712;BME280;5912;51.034;6.984;2023-03-03T07:59:46;56650.81;;;-142.13;67.25
11712;BME280;5912;51.034;6.984;2023-03-03T08:04:58;56656.81;;;-142.13;67.07
11712;BME280;5912;51.034;6.984;2023-03-03T08:07:23;56646.81;;;-142.13;67.24
11712;BME280;5912;51.034;6.984;2023-03-03T08:09:51;56622.75;;;-142.13;66.82
11712;BME280;5912;51.034;6.984;2023-03-03T08:12:27;56634.78;;;-142.13;66.40
11712;BME280;5912;51.034;6.984;2023-03-03T08:14:57;56612.75;;;-142.13;65.75
11712;BME280;5912;51.034;6.984;2023-03-03T08:17:35;56610.75;;;-142.13;65.47
11712;BME280;5912;51.034;6.984;2023-03-03T08:20:41;56618.75;;;-142.13;64.80
11712;BME280;5912;51.034;6.984;2023-03-03T08:23:08;56624.75;;;-142.13;65.16
11712;BME280;5912;51.034;6.984;2023-03-03T08:25:34;56622.75;;;-142.13;64.88
11712;BME280;5912;51.034;6.984;2023-03-03T08:27:59;56632.78;;;-142.13;64.05
11712;BME280;5912;51.034;6.984;2023-03-03T08:30:24;56634.78;;;-142.13;64.17
11712;BME280;5912;51.034;6.984;2023-03-03T08:32:50;56616.75;;;-142.13;64.07
11712;BME280;5912;51.034;6.984;2023-03-03T08:35:15;56644.81;;;-142.13;63.54
11712;BME280;5912;51.034;6.984;2023-03-03T08:37:40;56620.75;;;-142.13;63.93
11712;BME280;5912;51.034;6.984;2023-03-03T08:40:06;56592.72;;;-142.13;63.14
11712;BME280;5912;51.034;6.984;2023-03-03T08:42:32;56634.78;;;-142.13;63.18
11712;BME280;5912;51.034;6.984;2023-03-03T08:44:57;56620.75;;;-142.13;62.22
11712;BME280;5912;51.034;6.984;2023-03-03T08:47:22;56648.81;;;-142.13;62.33
11712;BME280;5912;51.034;6.984;2023-03-03T08:49:48;56628.78;;;-142.13;62.55
11712;BME280;5912;51.034;6.984;2023-03-03T08:52:13;56626.78;;;-142.13;62.28
11712;BME280;5912;51.034;6.984;2023-03-03T08:54:38;56606.75;;;-142.13;61.43
11712;BME280;5912;51.034;6.984;2023-03-03T08:57:03;56598.72;;;-142.13;60.96
11712;BME280;5912;51.034;6.984;2023-03-03T08:59:29;56646.81;;;-142.13;61.63
11712;BME280;5912;51.034;6.984;2023-03-03T09:01:54;56598.72;;;-142.13;60.84
11712;BME280;5912;51.034;6.984;2023-03-03T09:04:19;56582.69;;;-142.13;60.23
11712;BME280;5912;51.034;6.984;2023-03-03T09:06:45;56568.66;;;-142.13;59.49
11712;BME280;5912;51.034;6.984;2023-03-03T09:09:10;56586.69;;;-142.13;60.00
11712;BME280;5912;51.034;6.984;2023-03-03T09:11:35;56602.72;;;-142.13;58.86
11712;BME280;5912;51.034;6.984;2023-03-03T09:16:35;56578.69;;;-142.13;57.90
11712;BME280;5912;51.034;6.984;2023-03-03T09:19:15;56620.75;;;-142.13;57.31
11712;BME280;5912;51.034;6.984;2023-03-03T09:21:40;56592.72;;;-142.13;57.59
11712;BME280;5912;51.034;6.984;2023-03-03T09:24:18;56628.78;;;-142.13;58.35
11712;BME280;5912;51.034;6.984;2023-03-03T09:26:48;56582.69;;;-142.13;57.52
11712;BME280;5912;51.034;6.984;2023-03-03T09:31:41;56582.69;;;-142.13;56.17
11712;BME280;5912;51.034;6.984;2023-03-03T09:36:53;56598.72;;;-142.13;57.05
11712;BME280;5912;51.034;6.984;2023-03-03T09:39:20;56582.69;;;-142.13;56.54
11712;BME280;5912;51.034;6.984;2023-03-03T09:50:10;56580.69;;;-142.13;53.67
11712;BME280;5912;51.034;6.984;2023-03-03T09:52:49;56572.69;;;-142.13;54.01
11712;BME280;5912;51.034;6.984;2023-03-03T09:58:00;56524.59;;;-142.13;54.36
11712;BME280;5912;51.034;6.984;2023-03-03T10:08:36;56564.66;;;-142.13;54.70
11712;BME280;5912;51.034;6.984;2023-03-03T10:11:18;56560.66;;;-142.13;54.86
11712;BME280;5912;51.034;6.984;2023-03-03T10:14:20;56594.72;;;-142.13;53.54
11712;BME280;5912;51.034;6.984;2023-03-03T10:17:04;56568.66;;;-142.13;53.46
11712;BME280;5912;51.034;6.984;2023-03-03T10:19:43;56560.66;;;-142.13;52.21
11712;BME280;5912;51.034;6.984;2023-03-03T10:22:31;56562.66;;;-142.13;50.87
11712;BME280;5912;51.034;6.984;2023-03-03T10:27:58;56532.63;;;-142.13;49.49
11712;BME280;5912;51.034;6.984;2023-03-03T10:39:47;56540.63;;;-142.13;48.79
11712;BME280;5912;51.034;6.984;2023-03-03T10:48:19;56508.56;;;-142.13;46.12
11712;BME280;5912;51.034;6.984;2023-03-03T10:53:33;56504.56;;;-142.13;46.15
11712;BME280;5912;51.034;6.984;2023-03-03T11:01:35;56502.56;;;-142.13;45.77
11712;BME280;5912;51.034;6.984;2023-03-03T11:07:37;56530.59;;;-142.13;45.39
11712;BME280;5912;51.034;6.984;2023-03-03T11:12:47;56490.53;;;-142.13;44.50
11712;BME280;5912;51.034;6.984;2023-03-03T11:18:25;56492.53;;;-142.13;44.51
11712;BME280;5912;51.034;6.984;2023-03-03T11:26:33;56496.56;;;-142.13;44.76
11712;BME280;5912;51.034;6.984;2023-03-03T11:34:57;56472.50;;;-142.13;43.00
11712;BME280;5912;51.034;6.984;2023-03-03T11:37:52;56472.50;;;-142.13;43.39
11712;BME280;5912;51.034;6.984;2023-03-03T11:40:26;56456.50;;;-142.13;43.27
11712;BME280;5912;51.034;6.984;2023-03-03T11:43:00;56506.56;;;-142.13;44.31
11712;BME280;5912;51.034;6.984;2023-03-03T11:45:38;56518.59;;;-142.13;43.96
11712;BME280;5912;51.034;6.984;2023-03-03T11:48:12;56524.59;;;-142.13;43.68
11712;BME280;5912;51.034;6.984;2023-03-03T11:51:05;56488.53;;;-142.13;43.64
11712;BME280;5912;51.034;6.984;2023-03-03T11:53:42;56458.50;;;-142.13;43.05
11712;BME280;5912;51.034;6.984;2023-03-03T12:01:39;56464.50;;;-142.13;42.12
11712;BME280;5912;51.034;6.984;2023-03-03T12:04:19;56460.50;;;-142.13;41.80
11712;BME280;5912;51.034;6.984;2023-03-03T12:07:04;56464.50;;;-142.13;41.75
11712;BME280;5912;51.034;6.984;2023-03-03T12:10:02;56420.44;;;-142.13;40.89
11712;BME280;5912;51.034;6.984;2023-03-03T12:12:37;56432.44;;;-142.13;40.69
11712;BME280;5912;51.034;6.984;2023-03-03T12:15:13;56448.47;;;-142.13;40.74
11712;BME280;5912;51.034;6.984;2023-03-03T12:18:14;56436.47;;;-142.13;40.41
11712;BME280;5912;51.034;6.984;2023-03-03T12:28:57;56456.50;;;-142.13;39.47
11712;BME280;5912;51.034;6.984;2023-03-03T12:34:45;56452.47;;;-142.13;40.06
11712;BME280;5912;51.034;6.984;2023-03-03T12:40:33;56434.44;;;-142.13;40.92
11712;BME280;5912;51.034;6.984;2023-03-03T12:48:54;56416.44;;;-142.13;39.80
11712;BME280;5912;51.034;6.984;2023-03-03T12:56:40;56402.41;;;-142.13;38.93
11712;BME280;5912;51.034;6.984;2023-03-03T12:59:19;56414.41;;;-142.13;38.52
11712;BME280;5912;51.034;6.984;2023-03-03T13:07:40;56480.53;;;-142.13;38.13
11712;BME280;5912;51.034;6.984;2023-03-03T13:10:38;56418.44;;;-142.13;37.69
11712;BME280;5912;51.034;6.984;2023-03-03T13:13:39;56426.44;;;-142.13;38.23
11712;BME280;5912;51.034;6.984;2023-03-03T13:16:11;56426.44;;;-142.13;38.78
11712;BME280;5912;51.034;6.984;2023-03-03T13:18:52;56424.44;;;-142.13;38.79
11712;BME280;5912;51.034;6.984;2023-03-03T13:21:30;56432.44;;;-142.13;38.86
11712;BME280;5912;51.034;6.984;2023-03-03T13:26:40;56424.44;;;-142.13;38.45
11712;BME280;5912;51.034;6.984;2023-03-03T13:29:26;56416.44;;;-142.13;38.29
11712;BME280;5912;51.034;6.984;2023-03-03T13:31:56;56400.41;;;-142.13;38.04
11712;BME280;5912;51.034;6.984;2023-03-03T13:35:00;56388.38;;;-142.13;37.74
11712;BME280;5912;51.034;6.984;2023-03-03T13:37:34;56364.34;;;-142.13;35.98
11712;BME280;5912;51.034;6.984;2023-03-03T13:42:46;56334.28;;;-142.13;35.93
11712;BME280;5912;51.034;6.984;2023-03-03T13:45:28;56404.41;;;-142.13;35.81
11712;BME280;5912;51.034;6.984;2023-03-03T13:48:22;56368.34;;;-142.13;35.69
11712;BME280;5912;51.034;6.984;2023-03-03T13:51:06;56340.31;;;-142.13;35.10
11712;BME280;5912;51.034;6.984;2023-03-03T13:54:01;56348.31;;;-142.13;34.28
11712;BME280;5912;51.034;6.984;2023-03-03T13:56:40;56380.38;;;-142.13;34.89
11712;BME280;5912;51.034;6.984;2023-03-03T13:59:43;56360.34;;;-142.13;34.76
11712;BME280;5912;51.034;6.984;2023-03-03T14:05:29;56298.22;;;-142.13;33.50
11712;BME280;5912;51.034;6.984;2023-03-03T14:08:05;56318.25;;;-142.13;33.60
11712;BME280;5912;51.034;6.984;2023-03-03T14:11:03;56344.31;;;-142.13;33.16
11712;BME280;5912;51.034;6.984;2023-03-03T14:13:48;56310.25;;;-142.13;33.33
11712;BME280;5912;51.034;6.984;2023-03-03T14:16:48;56340.31;;;-142.13;33.93
11712;BME280;5912;51.034;6.984;2023-03-03T14:19:27;56328.28;;;-142.13;33.47
11712;BME280;5912;51.034;6.984;2023-03-03T14:27:33;56320.28;;;-142.13;32.21
11712;BME280;5912;51.034;6.984;2023-03-03T14:32:58;56308.25;;;-142.13;32.64
11712;BME280;5912;51.034;6.984;2023-03-03T14:35:29;56330.28;;;-142.13;32.83
11712;BME280;5912;51.034;6.984;2023-03-03T14:38:02;56330.28;;;-142.13;32.87
11712;BME280;5912;51.034;6.984;2023-03-03T14:40:32;56328.28;;;-142.13;33.17
11712;BME280;5912;51.034;6.984;2023-03-03T14:43:00;56322.28;;;-142.13;32.70
11712;BME280;5912;51.034;6.984;2023-03-03T14:45:38;56320.28;;;-142.13;32.65
11712;BME280;5912;51.034;6.984;2023-03-03T14:50:37;56324.28;;;-142.13;33.33
11712;BME280;5912;51.034;6.984;2023-03-03T14:53:14;56320.28;;;-142.13;33.80
11712;BME280;5912;51.034;6.984;2023-03-03T14:55:42;56344.31;;;-142.13;34.25
11712;BME280;5912;51.034;6.984;2023-03-03T14:58:42;56332.28;;;-142.13;33.84
11712;BME280;5912;51.034;6.984;2023-03-03T15:01:14;56364.34;;;-142.13;34.40
11712;BME280;5912;51.034;6.984;2023-03-03T15:03:46;56392.38;;;-142.13;35.06
11712;BME280;5912;51.034;6.984;2023-03-03T15:06:27;56406.41;;;-142.13;36.06
11712;BME280;5912;51.034;6.984;2023-03-03T15:08:53;56428.44;;;-142.13;36.95
11712;BME280;5912;51.034;6.984;2023-03-03T15:11:26;56452.47;;;-142.13;38.49
11712;BME280;5912;51.034;6.984;2023-03-03T15:14:14;56486.53;;;-142.13;39.37
11712;BME280;5912;51.034;6.984;2023-03-03T15:16:40;56472.50;;;-142.13;39.75
11712;BME280;5912;51.034;6.984;2023-03-03T15:21:57;56504.56;;;-142.13;41.58
11712;BME280;5912;51.034;6.984;2023-03-03T15:30:36;56528.59;;;-142.13;43.35
11712;BME280;5912;51.034;6.984;2023-03-03T15:33:11;56530.59;;;-142.13;44.01
11712;BME280;5912;51.034;6.984;2023-03-03T15:35:53;56516.59;;;-142.13;44.25
11712;BME280;5912;51.034;6.984;2023-03-03T15:38:33;56534.63;;;-142.13;44.84
11712;BME280;5912;51.034;6.984;2023-03-03T15:41:07;56528.59;;;-142.13;45.10
11712;BME280;5912;51.034;6.984;2023-03-03T15:43:50;56524.59;;;-142.13;45.49
11712;BME280;5912;51.034;6.984;2023-03-03T15:49:16;56540.63;;;-142.13;46.78
11712;BME280;5912;51.034;6.984;2023-03-03T15:58:17;56558.66;;;-142.13;48.81
11712;BME280;5912;51.034;6.984;2023-03-03T16:07:55;56556.66;;;-142.13;49.98
11712;BME280;5912;51.034;6.984;2023-03-03T16:13:04;56536.63;;;-142.13;50.53
11712;BME280;5912;51.034;6.984;2023-03-03T16:15:47;56568.66;;;-142.13;50.72
11712;BME280;5912;51.034;6.984;2023-03-03T16:23:49;56576.69;;;-142.13;51.04
11712;BME280;5912;51.034;6.984;2023-03-03T16:31:50;56576.69;;;-142.13;51.84
11712;BME280;5912;51.034;6.984;2023-03-03T16:34:29;56576.69;;;-142.13;51.93
11712;BME280;5912;51.034;6.984;2023-03-03T16:39:44;56608.75;;;-142.13;52.92
11712;BME280;5912;51.034;6.984;2023-03-03T16:42:29;56590.72;;;-142.13;52.72